Time;durP1;ratioP1;P1;durP2;ratioP2;P2;SDS_P1;SDS_P2;PMS_P1;PMS_P2;Temp;Humidity;BMP_temperature;BMP_pressure;BME280_temperature;BME280_humidity;BME280_pressure;Samples;Min_cycle;Max_cycle;Signal;HPM_P1;HPM_P2
2022/09/01 00:01:02;;;;;;;1.67;1.27;;;;;;;17.50;78.14;102319.72;5047036;28;20535;-73
2022/09/01 00:03:28;;;;;;;6.10;1.83;;;;;;;17.48;78.48;102318.03;5046608;28;20643;-71
2022/09/01 00:05:56;;;;;;;3.20;1.38;;;;;;;17.47;78.29;102313.63;5045824;28;20040;-65
2022/09/01 00:08:22;;;;;;;2.17;1.65;;;;;;;17.53;78.37;102310.72;5046981;28;20659;-72
2022/09/01 00:10:47;;;;;;;2.63;1.60;;;;;;;17.46;79.11;102311.91;5046150;28;20064;-72
2022/09/01 00:13:13;;;;;;;5.28;1.75;;;;;;;17.45;78.97;102308.38;5047298;28;20399;-72
2022/09/01 00:15:38;;;;;;;3.88;1.45;;;;;;;17.38;79.13;102301.53;5046411;28;20045;-72
2022/09/01 00:18:04;;;;;;;4.53;1.70;;;;;;;17.33;79.70;102299.06;5045930;28;20032;-72
2022/09/01 00:20:29;;;;;;;3.03;1.83;;;;;;;17.33;79.46;102298.22;5046427;28;20025;-73
2022/09/01 00:22:55;;;;;;;3.28;1.60;;;;;;;17.26;79.71;102294.91;5045299;28;20124;-72
2022/09/01 00:25:20;;;;;;;5.55;1.60;;;;;;;17.22;80.12;102296.81;5046914;28;20032;-72
2022/09/01 00:27:47;;;;;;;2.28;1.45;;;;;;;17.12;80.37;102290.97;5046309;28;20025;-71
2022/09/01 00:30:12;;;;;;;3.50;1.30;;;;;;;17.22;79.84;102291.47;5046293;28;20564;-71
2022/09/01 00:32:37;;;;;;;1.88;1.48;;;;;;;17.28;79.89;102290.41;5044628;28;20032;-71
2022/09/01 00:35:04;;;;;;;4.00;1.52;;;;;;;17.20;80.03;102295.13;5046477;28;20021;-71
2022/09/01 00:37:29;;;;;;;2.40;1.67;;;;;;;17.13;80.43;102292.72;5044728;28;20058;-71
2022/09/01 00:39:54;;;;;;;3.78;1.50;;;;;;;17.07;80.85;102287.66;5046229;28;20029;-72
2022/09/01 00:42:20;;;;;;;1.92;1.60;;;;;;;17.05;80.81;102289.44;5046510;28;20037;-72
2022/09/01 00:44:45;;;;;;;9.23;2.00;;;;;;;16.96;81.22;102287.13;5046008;28;20029;-71
2022/09/01 00:47:10;;;;;;;3.38;1.70;;;;;;;16.98;81.24;102287.97;5045775;28;20029;-71
2022/09/01 00:49:41;;;;;;;5.25;1.45;;;;;;;17.00;80.91;102284.31;5046221;28;20071;-72
2022/09/01 00:52:16;;;;;;;2.05;1.60;;;;;;;16.90;81.41;102282.91;5027138;28;20855;-71
2022/09/01 00:54:48;;;;;;;5.72;1.55;;;;;;;16.79;82.09;102278.00;5045826;28;20025;-72
2022/09/01 00:57:14;;;;;;;5.43;1.73;;;;;;;16.83;81.71;102278.75;5028253;28;20606;-72
2022/09/01 00:59:49;;;;;;;3.95;1.73;;;;;;;16.78;82.56;102284.25;5045869;28;20021;-72
2022/09/01 01:02:15;;;;;;;2.63;1.65;;;;;;;16.72;82.10;102285.34;5027371;28;20033;-72
2022/09/01 01:04:42;;;;;;;7.07;1.80;;;;;;;16.57;82.87;102283.22;5045203;28;20040;-72
2022/09/01 01:07:08;;;;;;;5.75;1.98;;;;;;;16.61;82.82;102274.22;5044752;28;20033;-72
2022/09/01 01:09:38;;;;;;;7.65;2.20;;;;;;;16.52;83.17;102275.41;5045446;28;20082;-72
2022/09/01 01:12:03;;;;;;;;;;;;;;;16.50;83.38;102277.28;5028385;28;20069;-72
2022/09/01 01:14:30;;;;;;;3.42;2.10;;;;;;;16.48;83.14;102281.78;5026547;28;19970;-72
2022/09/01 01:16:56;;;;;;;4.05;1.90;;;;;;;16.38;83.44;102279.44;5045386;28;20050;-72
2022/09/01 01:25:11;;;;;;;6.13;2.10;;;;;;;16.15;84.40;102281.13;5030454;28;20033;-72
2022/09/01 01:27:38;;;;;;;6.78;2.17;;;;;;;16.25;84.09;102272.81;5028430;28;20025;-72
2022/09/01 01:30:08;;;;;;;2.65;2.05;;;;;;;16.17;84.42;102275.75;5044072;28;20035;-72
2022/09/01 01:32:34;;;;;;;5.05;2.50;;;;;;;16.20;84.32;102280.09;5045162;28;20060;-71
2022/09/01 01:35:04;;;;;;;8.70;2.70;;;;;;;16.10;84.76;102276.91;5044761;28;20021;-72
2022/09/01 01:37:31;;;;;;;3.80;2.33;;;;;;;16.10;84.61;102284.88;5043592;28;20378;-71
2022/09/01 01:39:57;;;;;;;8.75;2.25;;;;;;;16.06;84.58;102272.59;5027860;28;20036;-72
2022/09/01 01:42:23;;;;;;;2.63;2.20;;;;;;;16.06;84.42;102269.94;5043890;28;20039;-72
2022/09/01 01:44:49;;;;;;;3.78;2.08;;;;;;;16.09;84.51;102273.38;5044949;28;20040;-72
2022/09/01 01:47:19;;;;;;;3.85;2.05;;;;;;;15.98;85.15;102267.56;5044972;28;20033;-72
2022/09/01 01:49:44;;;;;;;2.60;2.38;;;;;;;15.96;85.17;102261.38;5044058;28;20033;-72
2022/09/01 01:52:15;;;;;;;4.78;2.30;;;;;;;15.90;85.44;102265.97;5025031;28;20035;-71
2022/09/01 01:54:42;;;;;;;2.33;2.00;;;;;;;15.92;85.33;102266.81;5026830;28;20049;-72
2022/09/01 01:57:07;;;;;;;5.80;2.90;;;;;;;15.92;85.50;102273.88;5044392;28;20045;-73
2022/09/01 01:59:33;;;;;;;4.97;2.58;;;;;;;15.85;86.34;102269.72;5044690;28;20049;-72
2022/09/01 02:02:03;;;;;;;6.95;2.50;;;;;;;15.87;85.69;102267.88;5045066;28;20087;-72
2022/09/01 02:04:32;;;;;;;3.78;2.13;;;;;;;15.87;86.12;102271.38;5044048;28;20029;-72
2022/09/01 02:06:58;;;;;;;5.05;2.33;;;;;;;15.84;85.90;102268.84;5044058;28;20415;-72
2022/09/01 02:09:24;;;;;;;4.43;2.55;;;;;;;15.83;85.87;102267.09;5025431;28;20017;-71
2022/09/01 02:11:55;;;;;;;5.43;2.55;;;;;;;15.84;85.89;102270.63;5044032;28;20072;-72
2022/09/01 02:14:21;;;;;;;3.25;2.20;;;;;;;15.88;85.74;102269.59;5044463;28;20561;-70
2022/09/01 02:16:46;;;;;;;5.18;2.40;;;;;;;15.81;86.52;102268.97;5043901;28;20104;-73
2022/09/01 02:19:12;;;;;;;5.97;2.30;;;;;;;15.82;86.11;102262.72;5044162;28;20029;-73
2022/09/01 02:21:48;;;;;;;6.32;2.60;;;;;;;15.78;86.40;102264.59;5043674;28;20028;-73
2022/09/01 02:24:14;;;;;;;4.65;2.67;;;;;;;15.80;86.14;102269.84;5043757;28;20044;-73
2022/09/01 02:26:44;;;;;;;6.50;2.80;;;;;;;15.69;86.42;102269.34;5044019;28;20022;-71
2022/09/01 02:29:20;;;;;;;4.20;2.22;;;;;;;15.66;86.44;102259.69;5043911;28;20468;-72
2022/09/01 02:31:48;;;;;;;5.43;2.75;;;;;;;15.62;86.74;102258.91;5044127;28;20045;-72
2022/09/01 02:34:14;;;;;;;4.18;2.25;;;;;;;15.57;86.91;102258.22;5026548;28;20654;-71
2022/09/01 02:36:41;;;;;;;3.17;2.50;;;;;;;15.49;87.33;102252.25;5042449;28;20047;-71
2022/09/01 02:39:06;;;;;;;2.65;2.38;;;;;;;15.55;87.34;102262.69;5042492;28;20025;-71
2022/09/01 02:41:33;;;;;;;4.30;2.60;;;;;;;15.56;87.14;102252.94;5043417;28;20025;-71
2022/09/01 02:44:01;;;;;;;15.52;2.75;;;;;;;15.54;87.44;102253.00;5043014;28;20044;-72
2022/09/01 02:46:28;;;;;;;3.35;2.65;;;;;;;15.60;87.20;102260.78;5043451;28;20028;-72
2022/09/01 02:48:54;;;;;;;7.03;3.03;;;;;;;15.60;86.94;102251.94;5043093;28;20029;-71
2022/09/01 02:51:23;;;;;;;2.72;2.50;;;;;;;15.58;87.11;102253.75;5043434;28;20387;-71
2022/09/01 02:53:51;;;;;;;5.80;2.72;;;;;;;15.45;87.51;102250.63;5043753;28;20112;-71
2022/09/01 02:56:19;;;;;;;5.82;2.72;;;;;;;15.46;87.56;102247.06;5044196;28;20177;-71
2022/09/01 02:58:45;;;;;;;6.50;2.78;;;;;;;15.49;87.49;102241.63;5043852;28;20025;-71
2022/09/01 03:01:20;;;;;;;7.78;2.60;;;;;;;15.47;87.28;102238.19;5043931;28;20063;-71
2022/09/01 03:03:47;;;;;;;4.47;2.88;;;;;;;15.48;87.42;102250.53;5047814;28;20037;-72
2022/09/01 03:06:13;;;;;;;5.97;2.60;;;;;;;15.47;87.50;102246.16;5046266;28;20018;-71
2022/09/01 03:08:39;;;;;;;4.07;2.70;;;;;;;15.45;87.46;102240.88;5048063;28;20036;-72
2022/09/01 03:11:09;;;;;;;4.70;2.70;;;;;;;15.46;87.37;102239.09;5048083;28;20029;-72
2022/09/01 03:13:37;;;;;;;4.63;2.35;;;;;;;15.51;86.89;102232.69;5047780;28;20029;-72
2022/09/01 03:16:03;;;;;;;6.78;3.00;;;;;;;15.37;87.56;102233.16;5046971;28;20041;-73
2022/09/01 03:18:28;;;;;;;5.95;2.85;;;;;;;15.40;87.66;102238.38;5047400;28;20498;-72
2022/09/01 03:20:55;;;;;;;7.53;3.00;;;;;;;15.35;87.81;102229.69;5046326;28;20029;-72
2022/09/01 03:23:20;;;;;;;6.30;2.53;;;;;;;15.31;87.80;102235.13;5048295;28;20021;-71
2022/09/01 03:25:46;;;;;;;4.55;2.70;;;;;;;15.28;88.15;102238.75;5047461;28;20052;-72
2022/09/01 03:28:12;;;;;;;6.32;2.58;;;;;;;15.33;88.11;102235.97;5047879;28;20391;-71
2022/09/01 03:30:40;;;;;;;7.18;2.85;;;;;;;15.38;88.07;102239.34;5043204;28;20033;-73
2022/09/01 03:33:06;;;;;;;3.72;3.00;;;;;;;15.32;88.00;102237.72;5029584;28;20033;-72
2022/09/01 03:35:31;;;;;;;5.38;2.70;;;;;;;15.34;88.46;102235.03;5045376;28;20017;-72
2022/09/01 03:37:58;;;;;;;5.72;2.70;;;;;;;15.43;87.54;102234.75;5047365;28;20031;-71
2022/09/01 03:40:41;;;;;;;7.22;3.10;;;;;;;15.42;87.33;102235.66;5047406;28;20100;-70
2022/09/01 03:43:12;;;;;;;7.20;2.72;;;;;;;15.45;87.57;102229.38;5047487;28;20032;-71
2022/09/01 03:45:39;;;;;;;5.45;2.78;;;;;;;15.50;87.47;102219.50;5028353;28;20503;-71
2022/09/01 03:48:07;;;;;;;2.92;2.63;;;;;;;15.58;86.96;102227.19;5028521;28;20025;-71
2022/09/01 03:50:37;;;;;;;6.80;2.97;;;;;;;15.51;87.16;102224.72;5045323;28;20171;-71
2022/09/01 03:53:03;;;;;;;3.10;2.90;;;;;;;15.61;86.66;102224.44;5029711;28;20380;-71
2022/09/01 03:55:31;;;;;;;3.63;2.30;;;;;;;15.63;86.81;102223.44;5046242;28;20017;-70
2022/09/01 03:57:59;;;;;;;4.05;2.53;;;;;;;15.59;86.23;102227.13;5047355;28;20027;-72
2022/09/01 04:00:28;;;;;;;5.43;2.83;;;;;;;15.61;86.40;102221.78;5046741;28;20029;-72
2022/09/01 04:02:55;;;;;;;3.13;2.25;;;;;;;15.61;86.54;102217.34;5047132;28;20032;-72
2022/09/01 04:05:23;;;;;;;4.65;2.40;;;;;;;15.68;86.09;102223.31;5045949;28;20037;-73
2022/09/01 04:07:49;;;;;;;6.57;2.42;;;;;;;15.72;85.73;102219.66;5047237;28;20027;-73
2022/09/01 04:10:16;;;;;;;3.38;2.30;;;;;;;15.77;85.62;102219.47;5028252;28;20116;-73
2022/09/01 04:12:42;;;;;;;5.78;2.40;;;;;;;15.77;84.50;102214.16;5045712;28;20033;-71
2022/09/01 04:15:08;;;;;;;5.25;2.40;;;;;;;15.84;84.05;102215.72;5026485;28;20056;-71
2022/09/01 04:20:22;;;;;;;3.03;2.45;;;;;;;15.74;84.40;102214.28;5041665;28;20063;-73
2022/09/01 04:22:49;;;;;;;3.33;2.50;;;;;;;15.77;83.98;102214.16;5045339;28;20037;-72
2022/09/01 04:25:15;;;;;;;4.75;2.33;;;;;;;15.68;84.18;102217.13;5046220;28;20456;-73
2022/09/01 04:27:41;;;;;;;7.15;2.60;;;;;;;15.46;84.99;102220.50;5045857;28;20040;-70
2022/09/01 04:30:09;;;;;;;7.22;2.47;;;;;;;15.57;85.40;102212.19;5043038;28;20471;-66
2022/09/01 04:32:39;;;;;;;6.90;2.83;;;;;;;15.71;83.80;102215.22;5045865;28;20029;-66
2022/09/01 04:35:06;;;;;;;3.13;2.47;;;;;;;15.89;83.36;102213.75;5045220;28;20024;-65
2022/09/01 04:37:31;;;;;;;3.85;2.17;;;;;;;16.02;82.25;102213.34;5045203;28;20029;-68
2022/09/01 04:39:57;;;;;;;2.83;2.47;;;;;;;16.00;82.03;102212.53;5045612;28;20573;-65
2022/09/01 04:42:24;;;;;;;7.90;2.58;;;;;;;15.86;82.14;102219.16;5045325;28;20056;-66
2022/09/01 04:44:51;;;;;;;6.55;2.50;;;;;;;15.87;81.78;102220.88;5046561;28;20505;-65
2022/09/01 04:47:18;;;;;;;3.35;2.70;;;;;;;15.92;81.69;102208.31;5028291;28;20060;-66
2022/09/01 04:49:47;;;;;;;4.90;2.55;;;;;;;16.10;81.21;102216.59;5028314;28;20283;-64
2022/09/01 04:52:13;;;;;;;2.50;2.30;;;;;;;15.89;81.04;102212.88;5044593;28;20044;-64
2022/09/01 04:54:38;;;;;;;5.10;2.88;;;;;;;16.06;80.87;102214.97;5027635;28;20068;-65
2022/09/01 04:57:05;;;;;;;4.75;2.55;;;;;;;16.20;80.32;102216.28;5027603;28;20217;-66
2022/09/01 04:59:32;;;;;;;3.53;2.40;;;;;;;16.14;79.84;102215.56;5045457;28;20047;-66
2022/09/01 05:01:59;;;;;;;6.10;2.75;;;;;;;16.02;80.96;102211.53;5025997;28;20440;-66
2022/09/01 05:04:28;;;;;;;5.18;2.58;;;;;;;15.87;80.82;102220.03;5043586;28;20127;-66
2022/09/01 05:06:59;;;;;;;3.15;2.67;;;;;;;15.93;80.94;102227.81;5044740;28;20075;-64
2022/09/01 05:09:27;;;;;;;2.92;2.40;;;;;;;15.85;80.56;102216.56;5027494;28;20716;-65
2022/09/01 05:11:53;;;;;;;5.13;2.53;;;;;;;15.96;80.51;102217.09;5045661;28;20024;-65
2022/09/01 05:14:20;;;;;;;4.10;2.40;;;;;;;15.95;80.28;102217.97;5044742;28;20045;-65
2022/09/01 05:16:45;;;;;;;2.53;2.33;;;;;;;15.99;79.99;102217.00;5044758;28;20155;-66
2022/09/01 05:19:13;;;;;;;3.33;2.65;;;;;;;15.99;80.50;102214.34;5044190;28;20511;-66
2022/09/01 05:21:40;;;;;;;4.97;2.50;;;;;;;16.10;79.62;102219.25;5026029;28;20017;-66
2022/09/01 05:24:06;;;;;;;9.32;2.55;;;;;;;16.06;79.60;102216.75;5044729;28;20378;-65
2022/09/01 05:26:33;;;;;;;4.72;2.55;;;;;;;15.90;80.34;102222.59;5043711;28;20107;-65
2022/09/01 05:29:01;;;;;;;4.85;2.63;;;;;;;15.85;80.95;102217.44;5042985;28;20649;-64
2022/09/01 05:31:33;;;;;;;10.15;3.10;;;;;;;15.74;80.79;102219.59;5044299;28;20052;-64
2022/09/01 05:34:00;;;;;;;9.77;2.65;;;;;;;15.94;80.26;102215.38;5043679;28;20769;-65
2022/09/01 05:36:27;;;;;;;3.47;2.35;;;;;;;15.98;79.27;102217.06;5025497;28;20393;-66
2022/09/01 05:38:53;;;;;;;3.08;2.50;;;;;;;15.88;80.29;102212.00;5045340;28;20112;-66
2022/09/01 05:41:19;;;;;;;2.60;2.20;;;;;;;15.98;79.76;102217.91;5044084;28;20033;-66
2022/09/01 05:43:48;;;;;;;2.40;2.10;;;;;;;15.89;79.84;102224.38;5044161;28;20110;-66
2022/09/01 05:46:20;;;;;;;4.05;2.72;;;;;;;15.83;79.64;102218.41;5044102;28;20028;-66
2022/09/01 05:48:48;;;;;;;2.58;2.38;;;;;;;15.83;79.55;102221.91;5044043;28;20052;-64
2022/09/01 05:51:16;;;;;;;5.47;2.30;;;;;;;15.85;79.44;102219.22;5041788;28;20304;-65
2022/09/01 05:53:42;;;;;;;5.05;2.30;;;;;;;15.98;79.92;102225.88;5043352;28;20074;-64
2022/09/01 05:56:12;;;;;;;2.60;2.33;;;;;;;16.17;78.52;102219.94;5042575;28;20017;-63
2022/09/01 05:58:39;;;;;;;;;;;;;;;16.09;78.79;102227.28;5043151;28;20557;-65
2022/09/01 06:01:04;;;;;;;2.65;2.40;;;;;;;15.94;79.36;102226.00;5044038;28;20294;-65
2022/09/01 06:03:31;;;;;;;4.10;2.35;;;;;;;16.20;78.49;102226.91;5043373;28;20033;-65
2022/09/01 06:06:01;;;;;;;3.22;2.20;;;;;;;16.32;78.57;102226.50;5042551;28;20025;-64
2022/09/01 06:08:27;;;;;;;3.70;2.30;;;;;;;16.37;78.57;102228.94;5043529;28;20119;-65
2022/09/01 06:10:53;;;;;;;5.03;2.20;;;;;;;16.52;78.24;102228.41;5041197;28;20017;-64
2022/09/01 06:13:20;;;;;;;5.70;2.30;;;;;;;16.54;77.83;102220.38;5044343;28;20021;-66
2022/09/01 06:15:47;;;;;;;2.38;1.95;;;;;;;16.30;78.41;102228.31;5042006;28;20112;-73
2022/09/01 06:18:13;;;;;;;2.55;2.17;;;;;;;16.53;77.82;102229.28;5043749;28;20029;-74
2022/09/01 06:20:43;;;;;;;2.83;2.35;;;;;;;16.65;77.60;102231.47;5042646;28;20021;-74
2022/09/01 06:23:14;;;;;;;6.65;2.30;;;;;;;16.70;76.89;102222.47;5043798;28;20434;-73
2022/09/01 06:25:48;;;;;;;5.10;1.95;;;;;;;16.76;76.79;102227.53;5042774;28;20033;-73
2022/09/01 06:28:15;;;;;;;6.13;2.30;;;;;;;16.74;76.71;102227.59;5043307;28;20029;-73
2022/09/01 06:30:43;;;;;;;4.15;2.42;;;;;;;16.74;76.81;102227.59;5041875;28;20580;-73
2022/09/01 06:33:09;;;;;;;4.75;1.90;;;;;;;16.89;76.55;102225.28;5043095;28;20372;-72
2022/09/01 06:35:39;;;;;;;6.75;2.58;;;;;;;16.82;76.69;102229.13;5042644;28;20025;-76
2022/09/01 06:38:05;;;;;;;4.13;2.70;;;;;;;16.68;77.11;102226.03;5043464;28;20480;-75
2022/09/01 06:40:32;;;;;;;2.63;2.10;;;;;;;16.73;77.37;102232.97;5041665;28;20341;-73
2022/09/01 06:43:06;;;;;;;3.38;2.05;;;;;;;16.92;76.98;102235.81;5043050;28;20017;-75
2022/09/01 06:45:39;;;;;;;4.15;2.58;;;;;;;16.88;76.98;102228.84;5042639;28;20021;-75
2022/09/01 06:48:05;;;;;;;4.75;2.50;;;;;;;17.06;76.24;102229.94;5028921;28;20083;-74
2022/09/01 06:50:30;;;;;;;6.50;2.20;;;;;;;17.23;75.92;102231.09;5022608;28;20463;-74
2022/09/01 06:53:09;;;;;;;5.25;2.13;;;;;;;17.51;74.84;102229.97;5026273;28;20043;-73
2022/09/01 06:55:36;;;;;;;6.68;2.08;;;;;;;17.57;75.24;102232.38;5043237;28;20053;-74
2022/09/01 06:58:06;;;;;;;7.47;2.53;;;;;;;17.32;75.15;102233.41;5042713;28;20056;-73
2022/09/01 07:00:34;;;;;;;5.18;2.00;;;;;;;17.52;75.09;102240.56;5043276;28;20091;-73
2022/09/01 07:02:59;;;;;;;5.20;2.23;;;;;;;17.82;74.53;102242.00;5041114;28;20024;-75
2022/09/01 07:05:24;;;;;;;6.75;2.50;;;;;;;17.88;73.56;102249.75;5020300;28;20100;-75
2022/09/01 07:07:54;;;;;;;5.13;2.05;;;;;;;17.80;73.33;102243.88;5043873;28;20104;-75
2022/09/01 07:10:24;;;;;;;4.30;2.10;;;;;;;18.02;72.81;102242.97;5042906;28;20394;-73
2022/09/01 07:12:55;;;;;;;5.50;2.40;;;;;;;18.19;72.26;102248.44;5044086;28;20037;-72
2022/09/01 07:15:21;;;;;;;5.53;2.28;;;;;;;18.10;71.94;102253.31;5043334;28;20049;-72
2022/09/01 07:17:52;;;;;;;3.38;2.38;;;;;;;18.37;70.80;102245.94;5043111;28;20087;-73
2022/09/01 07:20:22;;;;;;;2.33;2.03;;;;;;;18.52;70.95;102246.16;5041076;28;20552;-71
2022/09/01 07:22:48;;;;;;;14.85;2.92;;;;;;;18.67;70.08;102248.13;5024392;28;20025;-69
2022/09/01 07:25:14;;;;;;;3.88;1.80;;;;;;;18.85;69.86;102245.56;5042428;28;20029;-68
2022/09/01 07:27:48;;;;;;;2.85;1.98;;;;;;;19.00;69.63;102248.44;5042666;28;20033;-69
2022/09/01 07:30:14;;;;;;;5.63;1.90;;;;;;;19.10;69.20;102244.41;5042433;28;20041;-69
2022/09/01 07:32:42;;;;;;;5.18;2.20;;;;;;;19.31;67.72;102241.63;5041002;28;20017;-69
2022/09/01 07:35:08;;;;;;;3.53;1.75;;;;;;;19.36;67.70;102242.28;5041498;28;20029;-69
2022/09/01 07:37:36;;;;;;;4.63;1.77;;;;;;;19.41;67.19;102250.06;5042736;28;20408;-69
2022/09/01 07:40:05;;;;;;;7.05;1.70;;;;;;;19.48;66.96;102246.16;5042538;28;20029;-72
2022/09/01 07:42:31;;;;;;;2.20;1.40;;;;;;;19.35;65.65;102243.22;5042505;28;20021;-70
2022/09/01 07:44:57;;;;;;;3.97;1.88;;;;;;;19.43;65.90;102243.72;5042897;28;20029;-67
2022/09/01 07:47:22;;;;;;;4.32;1.60;;;;;;;19.64;65.50;102250.72;5038828;28;20029;-69
2022/09/01 07:49:48;;;;;;;6.00;2.05;;;;;;;19.76;65.45;102254.59;5041326;28;20468;-67
2022/09/01 07:52:13;;;;;;;4.82;1.95;;;;;;;19.86;64.85;102253.19;5039893;28;20120;-69
2022/09/01 07:54:39;;;;;;;5.57;1.88;;;;;;;19.89;64.68;102253.03;5040228;28;20028;-70
2022/09/01 07:57:05;;;;;;;8.93;1.63;;;;;;;20.02;65.00;102249.75;5045950;28;20471;-70
2022/09/01 07:59:32;;;;;;;2.60;1.60;;;;;;;20.17;64.28;102251.63;5046186;28;20021;-69
2022/09/01 08:01:57;;;;;;;3.38;1.60;;;;;;;20.15;63.46;102248.19;5030415;28;20065;-69
2022/09/01 08:04:23;;;;;;;1.70;1.60;;;;;;;20.27;63.49;102244.00;5009015;28;20471;-69
2022/09/01 08:06:48;;;;;;;3.53;1.67;;;;;;;20.43;62.93;102246.69;5045010;28;20735;-69
2022/09/01 08:09:14;;;;;;;3.33;1.33;;;;;;;20.48;63.53;102248.25;5045760;28;20606;-68
2022/09/01 08:11:39;;;;;;;3.90;1.73;;;;;;;20.55;63.33;102250.53;5027743;28;20099;-68
2022/09/01 08:14:05;;;;;;;4.03;1.65;;;;;;;20.73;62.60;102246.91;5039115;28;20577;-69
2022/09/01 08:16:30;;;;;;;2.53;1.92;;;;;;;20.75;62.89;102251.25;5008529;28;20384;-68
2022/09/01 08:18:56;;;;;;;3.35;1.70;;;;;;;20.79;63.00;102258.16;5034809;28;20369;-69
2022/09/01 08:21:23;;;;;;;5.28;1.90;;;;;;;20.83;62.22;102246.34;5045756;28;20033;-69
2022/09/01 08:23:51;;;;;;;2.20;1.77;;;;;;;21.00;61.80;102251.72;5045665;28;20028;-69
2022/09/01 08:26:17;;;;;;;8.32;1.70;;;;;;;21.12;61.28;102253.72;5045581;28;20025;-70
2022/09/01 08:28:43;;;;;;;2.30;1.30;;;;;;;21.31;61.15;102248.16;5045303;28;20044;-69
2022/09/01 08:31:11;;;;;;;3.60;1.60;;;;;;;21.57;59.83;102251.16;5045629;28;20021;-68
2022/09/01 08:33:38;;;;;;;4.57;1.63;;;;;;;21.61;60.01;102251.84;5044085;28;20025;-69
2022/09/01 08:36:06;;;;;;;3.53;1.50;;;;;;;21.74;60.09;102251.13;5045248;28;20272;-69
2022/09/01 08:38:33;;;;;;;3.85;1.30;;;;;;;21.61;59.91;102241.09;5044642;28;20027;-70
2022/09/01 08:40:59;;;;;;;3.78;1.90;;;;;;;21.82;59.58;102238.13;5044912;28;20032;-68
2022/09/01 08:43:44;;;;;;;4.80;2.00;;;;;;;22.03;58.83;102246.72;5028336;28;20060;-67
2022/09/01 08:46:15;;;;;;;1.65;1.38;;;;;;;22.03;58.92;102248.56;5027758;28;20028;-68
2022/09/01 08:48:43;;;;;;;5.63;1.70;;;;;;;21.94;59.18;102244.56;5026599;28;20033;-70
2022/09/01 08:51:18;;;;;;;8.13;1.73;;;;;;;22.01;58.69;102248.66;5025049;28;20067;-70
2022/09/01 08:54:10;;;;;;;2.72;1.80;;;;;;;21.96;56.53;102254.28;5027759;28;20283;-70
2022/09/01 08:56:36;;;;;;;3.40;1.63;;;;;;;22.22;56.47;102240.22;5027241;28;20048;-71
2022/09/01 08:59:04;;;;;;;2.97;1.60;;;;;;;22.12;57.21;102244.44;5044945;28;20025;-68
2022/09/01 09:02:08;;;;;;;3.95;1.63;;;;;;;22.25;56.60;102236.50;5025517;28;20029;-68
2022/09/01 09:04:41;;;;;;;2.92;1.60;;;;;;;22.36;56.25;102239.34;5027288;28;20052;-68
2022/09/01 09:07:54;;;;;;;1.83;1.63;;;;;;;22.36;56.51;102236.66;5022194;28;20056;-68
2022/09/01 09:10:36;;;;;;;7.05;1.55;;;;;;;22.52;55.25;102238.41;4959009;28;20035;-70
2022/09/01 09:13:15;;;;;;;4.32;1.73;;;;;;;22.51;55.05;102236.69;5023814;28;20119;-69
2022/09/01 09:16:20;;;;;;;2.35;1.65;;;;;;;22.71;55.08;102239.00;5037849;28;20262;-69
2022/09/01 09:18:55;;;;;;;2.92;1.63;;;;;;;22.90;54.77;102234.28;5019703;28;20071;-69
2022/09/01 09:21:38;;;;;;;4.97;1.85;;;;;;;23.04;54.60;102223.47;5007989;28;20026;-69
2022/09/01 09:24:10;;;;;;;4.18;1.45;;;;;;;23.01;54.40;102221.00;5024637;28;20025;-68
2022/09/01 09:26:35;;;;;;;5.32;1.60;;;;;;;23.01;54.17;102225.50;5025243;28;20107;-67
2022/09/01 09:29:01;;;;;;;2.30;1.38;;;;;;;23.18;53.44;102230.63;5032945;28;20439;-70
2022/09/01 09:31:34;;;;;;;4.00;1.42;;;;;;;23.21;53.24;102216.97;5044104;28;20104;-70
2022/09/01 09:34:00;;;;;;;2.60;1.35;;;;;;;23.37;52.63;102215.13;5044205;28;20383;-69
2022/09/01 09:36:35;;;;;;;2.05;1.30;;;;;;;23.37;52.74;102215.13;5044451;28;20033;-69
2022/09/01 09:39:10;;;;;;;3.05;1.50;;;;;;;23.51;52.48;102211.53;5043955;28;20432;-70
2022/09/01 09:41:36;;;;;;;2.35;1.50;;;;;;;23.64;52.25;102211.53;5045160;28;20029;-70
2022/09/01 09:44:23;;;;;;;4.50;1.52;;;;;;;23.18;52.67;102206.44;5043654;28;20052;-67
2022/09/01 09:46:48;;;;;;;3.45;1.40;;;;;;;23.61;52.54;102201.84;5044616;28;20021;-66
2022/09/01 09:49:24;;;;;;;2.60;1.65;;;;;;;23.82;51.80;102193.28;5025420;28;20728;-67
2022/09/01 09:52:16;;;;;;;11.77;1.35;;;;;;;23.83;51.38;102197.66;5044636;28;20071;-69
2022/09/01 09:55:02;;;;;;;4.18;1.65;;;;;;;23.81;51.23;102192.41;5035869;28;20040;-67
2022/09/01 09:57:29;;;;;;;2.60;1.13;;;;;;;24.05;50.30;102188.97;5043453;28;20033;-67
2022/09/01 10:00:15;;;;;;;2.90;1.30;;;;;;;24.02;50.06;102199.09;5025581;28;20029;-68
2022/09/01 10:02:42;;;;;;;3.53;1.10;;;;;;;24.20;49.04;102196.97;5026134;28;20029;-68
2022/09/01 10:05:38;;;;;;;2.78;1.33;;;;;;;24.16;49.03;102196.31;5042502;28;20040;-67
2022/09/01 10:08:07;;;;;;;2.90;1.20;;;;;;;24.36;48.52;102185.97;5042116;28;20044;-66
2022/09/01 10:10:45;;;;;;;7.40;1.60;;;;;;;24.45;48.68;102189.81;5042428;28;20021;-70
2022/09/01 10:13:15;;;;;;;3.45;1.20;;;;;;;24.62;48.22;102180.50;5044385;28;20373;-68
2022/09/01 10:15:43;;;;;;;3.58;0.90;;;;;;;24.62;47.56;102185.88;5043288;28;20526;-69
2022/09/01 10:18:15;;;;;;;1.88;1.10;;;;;;;24.73;47.57;102187.78;5025568;28;20047;-68
2022/09/01 10:20:48;;;;;;;4.32;0.98;;;;;;;24.95;47.29;102187.09;5021562;28;20025;-67
2022/09/01 10:23:13;;;;;;;0.80;0.80;;;;;;;25.11;46.62;102184.09;5021832;28;20099;-67
2022/09/01 10:25:39;;;;;;;4.47;1.08;;;;;;;25.12;46.83;102182.28;5023715;28;20022;-68
2022/09/01 10:28:11;;;;;;;4.00;0.90;;;;;;;24.89;46.14;102175.94;5023791;28;20076;-69
2022/09/01 10:30:41;;;;;;;6.75;1.20;;;;;;;24.94;45.77;102182.69;5023040;28;20022;-68
2022/09/01 10:33:07;;;;;;;1.95;1.27;;;;;;;25.24;46.16;102175.97;5025812;28;20029;-69
2022/09/01 10:35:35;;;;;;;5.88;0.95;;;;;;;25.24;44.69;102181.34;5043308;28;20025;-67
2022/09/01 10:38:07;;;;;;;5.57;0.90;;;;;;;25.30;44.90;102179.16;5043540;28;20031;-70
2022/09/01 10:40:32;;;;;;;2.72;1.33;;;;;;;25.50;44.43;102180.34;5025371;28;20061;-68
2022/09/01 10:43:17;;;;;;;6.27;1.37;;;;;;;25.52;43.76;102182.94;5040674;28;20502;-68
2022/09/01 10:45:43;;;;;;;2.78;1.10;;;;;;;25.49;43.06;102174.06;5041332;28;20273;-68
2022/09/01 10:48:23;;;;;;;4.25;0.93;;;;;;;25.69;43.26;102178.94;5042836;28;20386;-68
2022/09/01 10:50:58;;;;;;;1.00;1.00;;;;;;;25.85;43.10;102175.88;5024458;28;20025;-69
2022/09/01 10:53:32;;;;;;;1.05;0.90;;;;;;;25.83;43.51;102170.59;5024707;28;20205;-66
2022/09/01 10:56:07;;;;;;;1.70;1.00;;;;;;;25.79;42.63;102169.13;5043938;28;20040;-68
2022/09/01 10:58:56;;;;;;;4.53;1.20;;;;;;;25.98;42.60;102168.53;5025888;28;20025;-70
2022/09/01 11:01:40;;;;;;;4.85;1.20;;;;;;;26.23;42.66;102172.00;5042305;28;20029;-68
2022/09/01 11:04:28;;;;;;;3.28;1.00;;;;;;;26.30;42.25;102163.41;5042716;28;20510;-68
2022/09/01 11:07:00;;;;;;;2.95;1.13;;;;;;;26.52;41.20;102167.09;4994582;28;20041;-65
2022/09/01 11:09:32;;;;;;;3.40;1.00;;;;;;;26.66;41.59;102166.78;5043665;28;20029;-67
2022/09/01 11:12:26;;;;;;;6.10;1.15;;;;;;;26.78;40.69;102158.69;5025978;28;20112;-68
2022/09/01 11:15:14;;;;;;;1.58;1.23;;;;;;;26.53;40.34;102166.09;5025196;28;20071;-67
2022/09/01 11:17:49;;;;;;;;;;;;;;;26.22;40.72;102162.16;5030510;28;20095;-68
2022/09/01 11:20:25;;;;;;;8.65;1.30;;;;;;;26.67;40.80;102167.66;5041858;28;19913;-69
2022/09/01 11:23:05;;;;;;;3.72;1.60;;;;;;;26.68;39.86;102159.44;5044115;28;20033;-69
2022/09/01 11:25:37;;;;;;;4.55;1.55;;;;;;;27.00;39.25;102155.06;5047490;28;20060;-68
2022/09/01 11:28:06;;;;;;;5.50;1.10;;;;;;;26.95;38.79;102152.72;5046749;28;20039;-68
2022/09/01 11:30:52;;;;;;;2.15;1.10;;;;;;;27.27;38.37;102160.97;5044815;28;20037;-69
2022/09/01 11:33:41;;;;;;;4.90;1.30;;;;;;;27.35;38.46;102148.50;5029685;28;20079;-68
2022/09/01 11:36:28;;;;;;;1.73;1.08;;;;;;;27.69;37.37;102150.16;5046359;28;20021;-68
2022/09/01 11:39:18;;;;;;;4.25;1.00;;;;;;;27.52;37.23;102150.72;5047012;28;20037;-68
2022/09/01 11:41:55;;;;;;;5.85;1.27;;;;;;;27.82;37.83;102141.81;5046599;28;20087;-68
2022/09/01 11:44:26;;;;;;;2.15;1.10;;;;;;;27.87;36.21;102149.50;5046062;28;20029;-68
2022/09/01 11:47:06;;;;;;;0.98;0.80;;;;;;;27.85;35.71;102143.41;5046132;28;20123;-69